Oberon — SKJF — position and weather

sailwx.info

Track history (hours):
 
Tides and Currents Weather Stations Pressure Air Temp Water Temp Dewpoint Dewpoint Depression Visibility Wind Speed Wind Dir Waves Ship Positions

Oberon

Last reported at 2015-Feb-17 12:24 UTC. Time now 2015-Mar-01 23:31 UTC.
Position N 34°52' E 139°43'.
Warning: this ship's position is 12 days out of date.

Length 232 m; draft 10.4 m.

Type: Cargo ship. MMSI: 266283000.

Date/timePositionNaut miles runAvg speedWind from/ knotsBaromVisibWave heightAir tempDewpointWater temp
2015-Feb-17 12:24N 34°52' E 139°43'1416.3
2015-Feb-17 11:33N 35°05' E 139°43'1312.8
2015-Feb-17 10:33N 35°18' E 139°44'10 9.9
2015-Feb-17 09:33N 35°28' E 139°42'0 0.5
2015-Feb-17 08:33N 35°28' E 139°41'0 0.0
2015-Feb-17 07:33N 35°28' E 139°41'0 0.0
2015-Feb-17 06:33N 35°28' E 139°41'0 0.0
2015-Feb-17 05:30N 35°28' E 139°41'0 0.0
2015-Feb-17 04:33N 35°28' E 139°41'0 0.0
2015-Feb-17 03:33N 35°28' E 139°41'0 0.0
2015-Feb-17 02:33N 35°28' E 139°41'0 0.0
2015-Feb-17 01:33N 35°28' E 139°41'0 0.0
2015-Feb-17 00:33N 35°28' E 139°41'0 0.0
2015-Feb-16 23:33N 35°28' E 139°41'0 0.0
2015-Feb-16 22:33N 35°28' E 139°41'1 1.3
2015-Feb-16 21:33N 35°27' E 139°43'2 1.7
2015-Feb-16 20:33N 35°26' E 139°44'0 0.0
2015-Feb-16 19:33N 35°26' E 139°44'0 0.0
2015-Feb-16 18:33N 35°26' E 139°44'0 0.1
2015-Feb-16 17:33N 35°26' E 139°44'0 0.0
2015-Feb-16 16:33N 35°26' E 139°44'0 0.0
2015-Feb-16 15:33N 35°26' E 139°44'0 0.0
2015-Feb-16 14:33N 35°26' E 139°44'0 0.0
2015-Feb-16 13:33N 35°26' E 139°44'0 0.0
2015-Feb-16 12:33N 35°26' E 139°44'0 0.0
2015-Feb-16 11:33N 35°26' E 139°44'0 0.1
2015-Feb-16 10:33N 35°26' E 139°44'10 9.7
2015-Feb-16 09:33N 35°16' E 139°46'1111.4
2015-Feb-16 08:33N 35°05' E 139°43'1615.8
2015-Feb-16 07:33N 34°55' E 139°29'231 5.5
2015-Feb-14 13:33N 33°54' E 134°58'1515.1
2015-Feb-14 12:34N 34°09' E 134°57'1515.3
2015-Feb-14 11:33N 34°24' E 135°03'1717.5
2015-Feb-14 10:34N 34°37' E 135°17'5 4.1
2015-Feb-14 09:28N 34°41' E 135°17'0 0.0
2015-Feb-14 08:28N 34°41' E 135°17'0 0.0
2015-Feb-14 07:16N 34°41' E 135°17'0 0.0
2015-Feb-14 06:28N 34°41' E 135°17'0 0.0
2015-Feb-14 05:28N 34°41' E 135°17'0 0.0
2015-Feb-14 04:28N 34°41' E 135°17'0 0.0
2015-Feb-14 03:28N 34°41' E 135°17'0 0.0
2015-Feb-14 02:28N 34°41' E 135°17'0 0.0
2015-Feb-14 01:28N 34°41' E 135°17'0 0.0
2015-Feb-14 00:28N 34°41' E 135°17'0 0.0
2015-Feb-13 23:28N 34°41' E 135°17'0 0.0
2015-Feb-13 22:33N 34°41' E 135°17'4 3.9
2015-Feb-13 21:33N 34°37' E 135°18'1413.7
2015-Feb-13 20:33N 34°26' E 135°08'1616.2
2015-Feb-13 19:34N 34°12' E 135°00'1312.8
2015-Feb-13 18:33N 33°59' E 134°57'20410.1
2015-Feb-12 22:26N 34°01' E 130°51'  
2015-Feb-08 10:21N 31°05' E 122°33'1114.3
2015-Feb-08 09:33N 31°06' E 122°20'1212.2
2015-Feb-08 08:33N 31°13' E 122°08'1010.4
2015-Feb-08 07:33N 31°15' E 121°56'1010.4
2015-Feb-08 06:33N 31°19' E 121°44'3 3.2
2015-Feb-08 05:33N 31°19' E 121°41'0 0.0
2015-Feb-08 04:31N 31°19' E 121°41'0 0.0
2015-Feb-08 03:31N 31°19' E 121°41'0 0.0
2015-Feb-08 02:31N 31°19' E 121°41'0 0.0
2015-Feb-08 01:31N 31°19' E 121°41'0 0.0
2015-Feb-08 00:31N 31°19' E 121°41'0 0.0
2015-Feb-07 23:31N 31°19' E 121°41'0 0.0
2015-Feb-07 22:31N 31°19' E 121°41'0 0.0
2015-Feb-07 21:31N 31°19' E 121°41'0 0.0
2015-Feb-07 20:31N 31°19' E 121°41'0 0.0
2015-Feb-07 19:31N 31°19' E 121°41'0 0.0
2015-Feb-07 18:31N 31°19' E 121°41'0 0.4
2015-Feb-07 17:34N 31°20' E 121°40'6 5.9
2015-Feb-07 16:34N 31°18' E 121°47'1010.5
2015-Feb-07 15:34N 31°15' E 121°59'1010.5
2015-Feb-07 14:34N 31°11' E 122°10'1010.1
2015-Feb-07 13:34N 31°06' E 122°20'9 9.4
2015-Feb-07 12:33N 31°09' E 122°31'  
Track history (hours):
 
Tides and Currents Weather Stations Pressure Air Temp Water Temp Dewpoint Dewpoint Depression Visibility Wind Speed Wind Dir Waves Ship Positions

Oberon

Last reported at 2015-Feb-17 12:24 UTC. Time now 2015-Mar-01 23:31 UTC.
Position N 34°52' E 139°43'.
Warning: this ship's position is 12 days out of date.

Length 232 m; draft 10.4 m.

Type: Cargo ship. MMSI: 266283000.

Date/timePositionNaut miles runAvg speedWind from/ knotsBaromVisibWave heightAir tempDewpointWater temp
2015-Feb-17 12:24N 34°52' E 139°43'1416.3
2015-Feb-17 11:33N 35°05' E 139°43'1312.8
2015-Feb-17 10:33N 35°18' E 139°44'10 9.9
2015-Feb-17 09:33N 35°28' E 139°42'0 0.5
2015-Feb-17 08:33N 35°28' E 139°41'0 0.0
2015-Feb-17 07:33N 35°28' E 139°41'0 0.0
2015-Feb-17 06:33N 35°28' E 139°41'0 0.0
2015-Feb-17 05:30N 35°28' E 139°41'0 0.0
2015-Feb-17 04:33N 35°28' E 139°41'0 0.0
2015-Feb-17 03:33N 35°28' E 139°41'0 0.0
2015-Feb-17 02:33N 35°28' E 139°41'0 0.0
2015-Feb-17 01:33N 35°28' E 139°41'0 0.0
2015-Feb-17 00:33N 35°28' E 139°41'0 0.0
2015-Feb-16 23:33N 35°28' E 139°41'0 0.0
2015-Feb-16 22:33N 35°28' E 139°41'1 1.3
2015-Feb-16 21:33N 35°27' E 139°43'2 1.7
2015-Feb-16 20:33N 35°26' E 139°44'0 0.0
2015-Feb-16 19:33N 35°26' E 139°44'0 0.0
2015-Feb-16 18:33N 35°26' E 139°44'0 0.1
2015-Feb-16 17:33N 35°26' E 139°44'0 0.0
2015-Feb-16 16:33N 35°26' E 139°44'0 0.0
2015-Feb-16 15:33N 35°26' E 139°44'0 0.0
2015-Feb-16 14:33N 35°26' E 139°44'0 0.0
2015-Feb-16 13:33N 35°26' E 139°44'0 0.0
2015-Feb-16 12:33N 35°26' E 139°44'0 0.0
2015-Feb-16 11:33N 35°26' E 139°44'0 0.1
2015-Feb-16 10:33N 35°26' E 139°44'10 9.7
2015-Feb-16 09:33N 35°16' E 139°46'1111.4
2015-Feb-16 08:33N 35°05' E 139°43'1615.8
2015-Feb-16 07:33N 34°55' E 139°29'231 5.5
2015-Feb-14 13:33N 33°54' E 134°58'1515.1
2015-Feb-14 12:34N 34°09' E 134°57'1515.3
2015-Feb-14 11:33N 34°24' E 135°03'1717.5
2015-Feb-14 10:34N 34°37' E 135°17'5 4.1
2015-Feb-14 09:28N 34°41' E 135°17'0 0.0
2015-Feb-14 08:28N 34°41' E 135°17'0 0.0
2015-Feb-14 07:16N 34°41' E 135°17'0 0.0
2015-Feb-14 06:28N 34°41' E 135°17'0 0.0
2015-Feb-14 05:28N 34°41' E 135°17'0 0.0
2015-Feb-14 04:28N 34°41' E 135°17'0 0.0
2015-Feb-14 03:28N 34°41' E 135°17'0 0.0
2015-Feb-14 02:28N 34°41' E 135°17'0 0.0
2015-Feb-14 01:28N 34°41' E 135°17'0 0.0
2015-Feb-14 00:28N 34°41' E 135°17'0 0.0
2015-Feb-13 23:28N 34°41' E 135°17'0 0.0
2015-Feb-13 22:33N 34°41' E 135°17'4 3.9
2015-Feb-13 21:33N 34°37' E 135°18'1413.7
2015-Feb-13 20:33N 34°26' E 135°08'1616.2
2015-Feb-13 19:34N 34°12' E 135°00'1312.8
2015-Feb-13 18:33N 33°59' E 134°57'20410.1
2015-Feb-12 22:26N 34°01' E 130°51'  
2015-Feb-08 10:21N 31°05' E 122°33'1114.3
2015-Feb-08 09:33N 31°06' E 122°20'1212.2
2015-Feb-08 08:33N 31°13' E 122°08'1010.4
2015-Feb-08 07:33N 31°15' E 121°56'1010.4
2015-Feb-08 06:33N 31°19' E 121°44'3 3.2
2015-Feb-08 05:33N 31°19' E 121°41'0 0.0
2015-Feb-08 04:31N 31°19' E 121°41'0 0.0
2015-Feb-08 03:31N 31°19' E 121°41'0 0.0
2015-Feb-08 02:31N 31°19' E 121°41'0 0.0
2015-Feb-08 01:31N 31°19' E 121°41'0 0.0
2015-Feb-08 00:31N 31°19' E 121°41'0 0.0
2015-Feb-07 23:31N 31°19' E 121°41'0 0.0
2015-Feb-07 22:31N 31°19' E 121°41'0 0.0
2015-Feb-07 21:31N 31°19' E 121°41'0 0.0
2015-Feb-07 20:31N 31°19' E 121°41'0 0.0
2015-Feb-07 19:31N 31°19' E 121°41'0 0.0
2015-Feb-07 18:31N 31°19' E 121°41'0 0.4
2015-Feb-07 17:34N 31°20' E 121°40'6 5.9
2015-Feb-07 16:34N 31°18' E 121°47'1010.5
2015-Feb-07 15:34N 31°15' E 121°59'1010.5
2015-Feb-07 14:34N 31°11' E 122°10'1010.1
2015-Feb-07 13:34N 31°06' E 122°20'9 9.4
2015-Feb-07 12:33N 31°09' E 122°31'  

Dump ship's entire track history